sensor_id;sensor_type;location;lat;lon;timestamp;P1;durP1;ratioP1;P2;durP2;ratioP2
51270;SDS011;37744;50.960;4.136;2022-08-19T00:01:35;30.38;;;23.15;;
51270;SDS011;37744;50.960;4.136;2022-08-19T00:04:03;36.88;;;27.40;;
51270;SDS011;37744;50.960;4.136;2022-08-19T00:06:33;36.03;;;26.33;;
51270;SDS011;37744;50.960;4.136;2022-08-19T00:09:04;40.03;;;27.60;;
51270;SDS011;37744;50.960;4.136;2022-08-19T00:11:32;37.85;;;25.70;;
51270;SDS011;37744;50.960;4.136;2022-08-19T00:14:04;34.97;;;26.58;;
51270;SDS011;37744;50.960;4.136;2022-08-19T00:16:32;35.10;;;25.02;;
51270;SDS011;37744;50.960;4.136;2022-08-19T00:19:00;37.20;;;25.75;;
51270;SDS011;37744;50.960;4.136;2022-08-19T00:21:27;33.45;;;23.92;;
51270;SDS011;37744;50.960;4.136;2022-08-19T00:23:55;38.30;;;26.38;;
51270;SDS011;37744;50.960;4.136;2022-08-19T00:28:52;39.47;;;26.83;;
51270;SDS011;37744;50.960;4.136;2022-08-19T00:31:24;33.45;;;24.55;;
51270;SDS011;37744;50.960;4.136;2022-08-19T00:33:51;34.00;;;24.55;;
51270;SDS011;37744;50.960;4.136;2022-08-19T00:36:18;34.10;;;24.25;;
51270;SDS011;37744;50.960;4.136;2022-08-19T00:38:46;37.10;;;25.85;;
51270;SDS011;37744;50.960;4.136;2022-08-19T00:41:16;36.67;;;26.20;;
51270;SDS011;37744;50.960;4.136;2022-08-19T00:46:36;31.67;;;23.08;;
51270;SDS011;37744;50.960;4.136;2022-08-19T00:49:22;34.97;;;24.48;;
51270;SDS011;37744;50.960;4.136;2022-08-19T00:52:13;36.55;;;26.05;;
51270;SDS011;37744;50.960;4.136;2022-08-19T00:54:44;32.75;;;23.92;;
51270;SDS011;37744;50.960;4.136;2022-08-19T00:57:15;34.80;;;25.90;;
51270;SDS011;37744;50.960;4.136;2022-08-19T01:04:43;41.75;;;28.83;;
51270;SDS011;37744;50.960;4.136;2022-08-19T01:07:12;41.25;;;29.70;;
51270;SDS011;37744;50.960;4.136;2022-08-19T01:09:44;42.65;;;29.52;;
51270;SDS011;37744;50.960;4.136;2022-08-19T01:14:44;42.17;;;28.98;;
51270;SDS011;37744;50.960;4.136;2022-08-19T01:19:43;41.88;;;28.02;;
51270;SDS011;37744;50.960;4.136;2022-08-19T01:22:17;40.58;;;26.77;;
51270;SDS011;37744;50.960;4.136;2022-08-19T01:24:51;43.95;;;29.25;;
51270;SDS011;37744;50.960;4.136;2022-08-19T01:27:18;43.88;;;29.25;;
51270;SDS011;37744;50.960;4.136;2022-08-19T01:29:44;42.90;;;27.20;;
51270;SDS011;37744;50.960;4.136;2022-08-19T01:32:16;43.50;;;29.52;;
51270;SDS011;37744;50.960;4.136;2022-08-19T01:34:41;38.72;;;26.13;;
51270;SDS011;37744;50.960;4.136;2022-08-19T01:39:44;37.72;;;25.15;;
51270;SDS011;37744;50.960;4.136;2022-08-19T01:42:12;34.00;;;24.48;;
51270;SDS011;37744;50.960;4.136;2022-08-19T01:44:39;39.42;;;27.50;;
51270;SDS011;37744;50.960;4.136;2022-08-19T01:47:08;39.67;;;26.55;;
51270;SDS011;37744;50.960;4.136;2022-08-19T01:49:36;41.38;;;27.92;;
51270;SDS011;37744;50.960;4.136;2022-08-19T01:52:08;37.05;;;25.55;;
51270;SDS011;37744;50.960;4.136;2022-08-19T01:57:10;45.00;;;28.70;;
51270;SDS011;37744;50.960;4.136;2022-08-19T01:59:39;36.33;;;25.70;;
51270;SDS011;37744;50.960;4.136;2022-08-19T02:02:10;39.25;;;27.23;;
51270;SDS011;37744;50.960;4.136;2022-08-19T02:04:39;36.20;;;24.80;;
51270;SDS011;37744;50.960;4.136;2022-08-19T02:07:05;32.72;;;22.80;;
51270;SDS011;37744;50.960;4.136;2022-08-19T02:12:01;30.20;;;20.40;;
51270;SDS011;37744;50.960;4.136;2022-08-19T02:14:28;31.92;;;22.67;;
51270;SDS011;37744;50.960;4.136;2022-08-19T02:16:54;31.33;;;21.77;;
51270;SDS011;37744;50.960;4.136;2022-08-19T02:19:21;29.58;;;21.85;;
51270;SDS011;37744;50.960;4.136;2022-08-19T02:21:54;29.70;;;21.63;;
51270;SDS011;37744;50.960;4.136;2022-08-19T02:24:29;29.90;;;20.90;;
51270;SDS011;37744;50.960;4.136;2022-08-19T02:26:56;30.75;;;21.35;;
51270;SDS011;37744;50.960;4.136;2022-08-19T02:29:22;31.08;;;21.25;;
51270;SDS011;37744;50.960;4.136;2022-08-19T02:31:49;28.88;;;20.33;;
51270;SDS011;37744;50.960;4.136;2022-08-19T02:34:15;26.48;;;19.75;;
51270;SDS011;37744;50.960;4.136;2022-08-19T02:36:41;27.25;;;18.83;;
51270;SDS011;37744;50.960;4.136;2022-08-19T02:39:08;28.85;;;18.75;;
51270;SDS011;37744;50.960;4.136;2022-08-19T02:41:35;30.55;;;21.23;;
51270;SDS011;37744;50.960;4.136;2022-08-19T02:44:03;26.75;;;20.17;;
51270;SDS011;37744;50.960;4.136;2022-08-19T02:46:32;32.00;;;22.80;;
51270;SDS011;37744;50.960;4.136;2022-08-19T02:49:05;28.98;;;21.23;;
51270;SDS011;37744;50.960;4.136;2022-08-19T02:51:39;27.75;;;21.08;;
51270;SDS011;37744;50.960;4.136;2022-08-19T02:54:08;30.02;;;20.98;;
51270;SDS011;37744;50.960;4.136;2022-08-19T02:56:41;34.08;;;22.00;;
51270;SDS011;37744;50.960;4.136;2022-08-19T02:59:11;30.17;;;20.40;;
51270;SDS011;37744;50.960;4.136;2022-08-19T03:01:37;29.70;;;21.48;;
51270;SDS011;37744;50.960;4.136;2022-08-19T03:04:08;28.17;;;20.05;;
51270;SDS011;37744;50.960;4.136;2022-08-19T03:06:42;28.95;;;19.48;;
51270;SDS011;37744;50.960;4.136;2022-08-19T03:11:40;30.27;;;19.90;;
51270;SDS011;37744;50.960;4.136;2022-08-19T03:14:08;27.23;;;20.00;;
51270;SDS011;37744;50.960;4.136;2022-08-19T03:16:39;27.70;;;19.70;;
51270;SDS011;37744;50.960;4.136;2022-08-19T03:19:09;25.30;;;18.75;;
51270;SDS011;37744;50.960;4.136;2022-08-19T03:21:42;32.72;;;18.92;;
51270;SDS011;37744;50.960;4.136;2022-08-19T03:24:13;30.88;;;21.08;;
51270;SDS011;37744;50.960;4.136;2022-08-19T03:26:42;28.35;;;19.60;;
51270;SDS011;37744;50.960;4.136;2022-08-19T03:29:15;25.50;;;18.10;;
51270;SDS011;37744;50.960;4.136;2022-08-19T03:34:13;24.83;;;17.38;;
51270;SDS011;37744;50.960;4.136;2022-08-19T03:36:44;27.40;;;18.67;;
51270;SDS011;37744;50.960;4.136;2022-08-19T03:39:12;27.33;;;18.50;;
51270;SDS011;37744;50.960;4.136;2022-08-19T03:41:40;26.40;;;18.90;;
51270;SDS011;37744;50.960;4.136;2022-08-19T03:44:11;27.33;;;18.73;;
51270;SDS011;37744;50.960;4.136;2022-08-19T03:46:53;22.77;;;16.02;;
51270;SDS011;37744;50.960;4.136;2022-08-19T03:49:21;26.25;;;17.13;;
51270;SDS011;37744;50.960;4.136;2022-08-19T03:54:20;24.02;;;17.02;;
51270;SDS011;37744;50.960;4.136;2022-08-19T03:56:51;25.52;;;16.80;;
51270;SDS011;37744;50.960;4.136;2022-08-19T03:59:31;25.33;;;16.52;;
51270;SDS011;37744;50.960;4.136;2022-08-19T04:02:00;25.13;;;17.00;;
51270;SDS011;37744;50.960;4.136;2022-08-19T04:04:32;25.23;;;16.20;;
51270;SDS011;37744;50.960;4.136;2022-08-19T04:06:58;23.10;;;17.02;;
51270;SDS011;37744;50.960;4.136;2022-08-19T04:09:26;25.98;;;17.02;;
51270;SDS011;37744;50.960;4.136;2022-08-19T04:11:53;26.05;;;18.00;;
51270;SDS011;37744;50.960;4.136;2022-08-19T04:14:24;27.42;;;16.33;;
51270;SDS011;37744;50.960;4.136;2022-08-19T04:21:51;28.27;;;17.50;;
51270;SDS011;37744;50.960;4.136;2022-08-19T04:24:21;24.77;;;17.08;;
51270;SDS011;37744;50.960;4.136;2022-08-19T04:26:48;27.15;;;18.15;;
51270;SDS011;37744;50.960;4.136;2022-08-19T04:29:16;24.77;;;17.80;;
51270;SDS011;37744;50.960;4.136;2022-08-19T04:31:52;27.80;;;17.95;;
51270;SDS011;37744;50.960;4.136;2022-08-19T04:34:21;25.00;;;17.38;;
51270;SDS011;37744;50.960;4.136;2022-08-19T04:36:51;24.60;;;16.27;;
51270;SDS011;37744;50.960;4.136;2022-08-19T04:39:22;29.02;;;17.33;;
51270;SDS011;37744;50.960;4.136;2022-08-19T04:45:04;22.75;;;15.57;;
51270;SDS011;37744;50.960;4.136;2022-08-19T04:47:33;22.20;;;16.23;;
51270;SDS011;37744;50.960;4.136;2022-08-19T04:49:59;23.48;;;15.98;;
51270;SDS011;37744;50.960;4.136;2022-08-19T04:52:30;21.33;;;14.25;;
51270;SDS011;37744;50.960;4.136;2022-08-19T04:54:58;22.52;;;14.60;;
51270;SDS011;37744;50.960;4.136;2022-08-19T04:57:26;23.15;;;15.88;;
51270;SDS011;37744;50.960;4.136;2022-08-19T04:59:58;24.00;;;14.73;;
51270;SDS011;37744;50.960;4.136;2022-08-19T05:02:25;25.58;;;16.40;;
51270;SDS011;37744;50.960;4.136;2022-08-19T05:04:58;23.17;;;14.45;;
51270;SDS011;37744;50.960;4.136;2022-08-19T05:07:36;26.17;;;16.40;;
51270;SDS011;37744;50.960;4.136;2022-08-19T05:12:31;24.85;;;15.02;;
51270;SDS011;37744;50.960;4.136;2022-08-19T05:14:58;21.00;;;15.35;;
51270;SDS011;37744;50.960;4.136;2022-08-19T05:17:26;23.02;;;15.23;;
51270;SDS011;37744;50.960;4.136;2022-08-19T05:19:54;22.17;;;14.63;;
51270;SDS011;37744;50.960;4.136;2022-08-19T05:22:40;22.00;;;14.27;;
51270;SDS011;37744;50.960;4.136;2022-08-19T05:25:09;23.20;;;14.43;;
51270;SDS011;37744;50.960;4.136;2022-08-19T05:27:39;24.90;;;14.20;;
51270;SDS011;37744;50.960;4.136;2022-08-19T05:30:14;23.42;;;14.40;;
51270;SDS011;37744;50.960;4.136;2022-08-19T05:32:41;23.50;;;14.40;;
51270;SDS011;37744;50.960;4.136;2022-08-19T05:37:37;23.17;;;13.82;;
51270;SDS011;37744;50.960;4.136;2022-08-19T05:42:35;19.20;;;12.50;;
51270;SDS011;37744;50.960;4.136;2022-08-19T05:45:04;21.17;;;11.75;;
51270;SDS011;37744;50.960;4.136;2022-08-19T05:47:31;15.88;;;11.32;;
51270;SDS011;37744;50.960;4.136;2022-08-19T05:49:58;20.38;;;11.38;;
51270;SDS011;37744;50.960;4.136;2022-08-19T05:54:56;16.83;;;10.50;;
51270;SDS011;37744;50.960;4.136;2022-08-19T05:57:22;17.23;;;10.93;;
51270;SDS011;37744;50.960;4.136;2022-08-19T05:59:51;17.92;;;11.18;;
51270;SDS011;37744;50.960;4.136;2022-08-19T06:04:46;17.48;;;10.98;;
51270;SDS011;37744;50.960;4.136;2022-08-19T06:07:13;17.40;;;10.52;;
51270;SDS011;37744;50.960;4.136;2022-08-19T06:09:46;19.83;;;10.23;;
51270;SDS011;37744;50.960;4.136;2022-08-19T06:14:42;21.73;;;12.00;;
51270;SDS011;37744;50.960;4.136;2022-08-19T06:17:09;21.85;;;11.10;;
51270;SDS011;37744;50.960;4.136;2022-08-19T06:19:39;15.90;;;10.07;;
51270;SDS011;37744;50.960;4.136;2022-08-19T06:22:11;20.65;;;12.45;;
51270;SDS011;37744;50.960;4.136;2022-08-19T06:24:43;17.40;;;11.43;;
51270;SDS011;37744;50.960;4.136;2022-08-19T06:27:14;20.17;;;11.93;;
51270;SDS011;37744;50.960;4.136;2022-08-19T06:32:10;20.23;;;11.82;;
51270;SDS011;37744;50.960;4.136;2022-08-19T06:34:42;19.60;;;12.02;;
51270;SDS011;37744;50.960;4.136;2022-08-19T06:37:11;23.60;;;12.88;;
51270;SDS011;37744;50.960;4.136;2022-08-19T06:39:37;18.17;;;12.27;;
51270;SDS011;37744;50.960;4.136;2022-08-19T06:42:05;19.73;;;11.90;;
51270;SDS011;37744;50.960;4.136;2022-08-19T06:44:35;16.70;;;11.80;;
51270;SDS011;37744;50.960;4.136;2022-08-19T06:47:11;20.73;;;12.40;;
51270;SDS011;37744;50.960;4.136;2022-08-19T06:52:13;17.15;;;11.32;;
51270;SDS011;37744;50.960;4.136;2022-08-19T06:57:07;19.38;;;11.68;;
51270;SDS011;37744;50.960;4.136;2022-08-19T06:59:39;20.85;;;11.32;;
51270;SDS011;37744;50.960;4.136;2022-08-19T07:02:06;18.75;;;12.00;;
51270;SDS011;37744;50.960;4.136;2022-08-19T07:07:04;18.98;;;11.45;;
51270;SDS011;37744;50.960;4.136;2022-08-19T07:09:38;17.98;;;11.40;;
51270;SDS011;37744;50.960;4.136;2022-08-19T07:12:07;19.33;;;11.43;;
51270;SDS011;37744;50.960;4.136;2022-08-19T07:14:38;21.60;;;12.00;;
51270;SDS011;37744;50.960;4.136;2022-08-19T07:17:07;17.58;;;11.23;;
51270;SDS011;37744;50.960;4.136;2022-08-19T07:19:40;16.85;;;11.10;;
51270;SDS011;37744;50.960;4.136;2022-08-19T07:22:09;17.00;;;11.52;;
51270;SDS011;37744;50.960;4.136;2022-08-19T07:24:36;13.73;;;9.60;;
51270;SDS011;37744;50.960;4.136;2022-08-19T07:27:08;14.45;;;9.50;;
51270;SDS011;37744;50.960;4.136;2022-08-19T07:29:37;15.43;;;9.68;;
51270;SDS011;37744;50.960;4.136;2022-08-19T07:32:06;16.52;;;9.23;;
51270;SDS011;37744;50.960;4.136;2022-08-19T07:34:31;15.45;;;10.68;;
51270;SDS011;37744;50.960;4.136;2022-08-19T07:37:02;15.63;;;9.63;;
51270;SDS011;37744;50.960;4.136;2022-08-19T07:39:32;13.50;;;8.38;;
51270;SDS011;37744;50.960;4.136;2022-08-19T07:42:01;14.90;;;9.27;;
51270;SDS011;37744;50.960;4.136;2022-08-19T07:44:35;15.32;;;9.55;;
51270;SDS011;37744;50.960;4.136;2022-08-19T07:47:02;16.73;;;9.13;;
51270;SDS011;37744;50.960;4.136;2022-08-19T07:49:32;12.98;;;8.93;;
51270;SDS011;37744;50.960;4.136;2022-08-19T07:51:59;10.70;;;7.95;;
51270;SDS011;37744;50.960;4.136;2022-08-19T07:54:30;14.15;;;8.57;;
51270;SDS011;37744;50.960;4.136;2022-08-19T07:57:03;13.80;;;8.35;;
51270;SDS011;37744;50.960;4.136;2022-08-19T07:59:29;15.88;;;9.20;;
51270;SDS011;37744;50.960;4.136;2022-08-19T08:02:05;11.82;;;7.85;;
51270;SDS011;37744;50.960;4.136;2022-08-19T08:04:31;12.13;;;7.82;;
51270;SDS011;37744;50.960;4.136;2022-08-19T08:07:15;13.07;;;7.55;;
51270;SDS011;37744;50.960;4.136;2022-08-19T08:10:00;14.27;;;8.10;;
51270;SDS011;37744;50.960;4.136;2022-08-19T08:12:39;12.30;;;7.57;;
51270;SDS011;37744;50.960;4.136;2022-08-19T08:15:13;15.13;;;8.05;;
51270;SDS011;37744;50.960;4.136;2022-08-19T08:20:13;11.40;;;7.43;;
51270;SDS011;37744;50.960;4.136;2022-08-19T08:22:43;11.82;;;7.13;;
51270;SDS011;37744;50.960;4.136;2022-08-19T08:25:32;12.13;;;7.25;;
51270;SDS011;37744;50.960;4.136;2022-08-19T08:27:57;11.88;;;6.63;;
51270;SDS011;37744;50.960;4.136;2022-08-19T08:30:26;11.88;;;7.05;;
51270;SDS011;37744;50.960;4.136;2022-08-19T08:32:58;11.95;;;7.53;;
51270;SDS011;37744;50.960;4.136;2022-08-19T08:35:26;15.30;;;7.25;;
51270;SDS011;37744;50.960;4.136;2022-08-19T08:37:53;9.93;;;6.75;;
51270;SDS011;37744;50.960;4.136;2022-08-19T08:40:30;13.80;;;7.28;;
51270;SDS011;37744;50.960;4.136;2022-08-19T08:43:28;11.90;;;7.43;;
51270;SDS011;37744;50.960;4.136;2022-08-19T08:51:39;11.93;;;7.40;;
51270;SDS011;37744;50.960;4.136;2022-08-19T08:54:10;8.63;;;7.35;;
51270;SDS011;37744;50.960;4.136;2022-08-19T08:56:39;13.95;;;8.55;;
51270;SDS011;37744;50.960;4.136;2022-08-19T09:01:58;11.95;;;7.82;;
51270;SDS011;37744;50.960;4.136;2022-08-19T09:04:30;15.52;;;8.48;;
51270;SDS011;37744;50.960;4.136;2022-08-19T09:09:38;14.18;;;8.07;;
51270;SDS011;37744;50.960;4.136;2022-08-19T09:12:15;15.30;;;8.80;;
51270;SDS011;37744;50.960;4.136;2022-08-19T09:15:00;14.30;;;8.23;;
51270;SDS011;37744;50.960;4.136;2022-08-19T09:17:32;14.57;;;8.18;;
51270;SDS011;37744;50.960;4.136;2022-08-19T09:22:42;13.18;;;7.93;;
51270;SDS011;37744;50.960;4.136;2022-08-19T09:25:14;12.25;;;7.63;;
51270;SDS011;37744;50.960;4.136;2022-08-19T09:27:41;16.20;;;7.88;;
51270;SDS011;37744;50.960;4.136;2022-08-19T09:30:30;12.65;;;7.78;;
51270;SDS011;37744;50.960;4.136;2022-08-19T09:35:27;14.90;;;7.90;;
51270;SDS011;37744;50.960;4.136;2022-08-19T09:40:26;11.07;;;7.75;;
51270;SDS011;37744;50.960;4.136;2022-08-19T09:45:27;10.73;;;6.88;;
51270;SDS011;37744;50.960;4.136;2022-08-19T09:47:53;15.23;;;7.05;;
51270;SDS011;37744;50.960;4.136;2022-08-19T09:50:21;11.23;;;6.93;;
51270;SDS011;37744;50.960;4.136;2022-08-19T09:52:51;13.27;;;7.32;;
51270;SDS011;37744;50.960;4.136;2022-08-19T09:55:19;12.38;;;7.32;;
51270;SDS011;37744;50.960;4.136;2022-08-19T09:57:46;9.73;;;6.68;;
51270;SDS011;37744;50.960;4.136;2022-08-19T10:00:12;10.55;;;6.55;;
51270;SDS011;37744;50.960;4.136;2022-08-19T10:02:39;13.05;;;6.97;;
51270;SDS011;37744;50.960;4.136;2022-08-19T10:05:14;13.88;;;7.75;;
51270;SDS011;37744;50.960;4.136;2022-08-19T10:13:29;9.75;;;6.00;;
51270;SDS011;37744;50.960;4.136;2022-08-19T10:16:03;14.13;;;6.15;;
51270;SDS011;37744;50.960;4.136;2022-08-19T10:18:33;10.40;;;5.63;;
51270;SDS011;37744;50.960;4.136;2022-08-19T10:21:08;11.10;;;6.70;;
51270;SDS011;37744;50.960;4.136;2022-08-19T10:23:43;11.38;;;5.70;;
51270;SDS011;37744;50.960;4.136;2022-08-19T10:26:22;8.38;;;5.55;;
51270;SDS011;37744;50.960;4.136;2022-08-19T10:28:55;10.75;;;5.57;;
51270;SDS011;37744;50.960;4.136;2022-08-19T10:31:23;7.95;;;5.45;;
51270;SDS011;37744;50.960;4.136;2022-08-19T10:33:54;14.10;;;6.00;;
51270;SDS011;37744;50.960;4.136;2022-08-19T10:36:24;8.98;;;5.22;;
51270;SDS011;37744;50.960;4.136;2022-08-19T10:38:58;5.90;;;5.00;;
51270;SDS011;37744;50.960;4.136;2022-08-19T10:41:28;7.28;;;4.65;;
51270;SDS011;37744;50.960;4.136;2022-08-19T10:44:02;8.55;;;4.85;;
51270;SDS011;37744;50.960;4.136;2022-08-19T10:46:31;6.63;;;4.32;;
51270;SDS011;37744;50.960;4.136;2022-08-19T10:49:00;5.30;;;3.63;;
51270;SDS011;37744;50.960;4.136;2022-08-19T10:51:30;7.95;;;4.60;;
51270;SDS011;37744;50.960;4.136;2022-08-19T10:54:16;6.15;;;4.60;;
51270;SDS011;37744;50.960;4.136;2022-08-19T10:56:42;5.60;;;3.95;;
51270;SDS011;37744;50.960;4.136;2022-08-19T10:59:23;7.25;;;4.18;;
51270;SDS011;37744;50.960;4.136;2022-08-19T11:01:53;5.88;;;4.10;;
51270;SDS011;37744;50.960;4.136;2022-08-19T11:04:24;5.63;;;4.60;;
51270;SDS011;37744;50.960;4.136;2022-08-19T11:06:52;6.38;;;4.28;;
51270;SDS011;37744;50.960;4.136;2022-08-19T11:09:21;7.57;;;4.38;;
51270;SDS011;37744;50.960;4.136;2022-08-19T11:11:51;5.97;;;4.55;;
51270;SDS011;37744;50.960;4.136;2022-08-19T11:14:19;6.68;;;4.03;;
51270;SDS011;37744;50.960;4.136;2022-08-19T11:16:49;7.88;;;4.50;;
51270;SDS011;37744;50.960;4.136;2022-08-19T11:19:19;7.80;;;4.57;;
51270;SDS011;37744;50.960;4.136;2022-08-19T11:21:47;7.30;;;4.70;;
51270;SDS011;37744;50.960;4.136;2022-08-19T11:24:15;9.82;;;4.78;;
51270;SDS011;37744;50.960;4.136;2022-08-19T11:26:44;7.97;;;3.92;;
51270;SDS011;37744;50.960;4.136;2022-08-19T11:29:10;4.35;;;3.70;;
51270;SDS011;37744;50.960;4.136;2022-08-19T11:34:09;5.25;;;3.80;;
51270;SDS011;37744;50.960;4.136;2022-08-19T11:36:39;5.38;;;3.58;;
51270;SDS011;37744;50.960;4.136;2022-08-19T11:39:09;5.50;;;4.38;;
51270;SDS011;37744;50.960;4.136;2022-08-19T11:41:36;6.90;;;4.90;;
51270;SDS011;37744;50.960;4.136;2022-08-19T11:44:06;5.38;;;4.78;;
51270;SDS011;37744;50.960;4.136;2022-08-19T11:46:34;7.50;;;5.47;;
51270;SDS011;37744;50.960;4.136;2022-08-19T11:49:00;7.80;;;5.10;;
51270;SDS011;37744;50.960;4.136;2022-08-19T11:53:58;8.27;;;5.15;;
51270;SDS011;37744;50.960;4.136;2022-08-19T11:56:24;5.97;;;5.00;;
51270;SDS011;37744;50.960;4.136;2022-08-19T11:58:56;9.43;;;5.55;;
51270;SDS011;37744;50.960;4.136;2022-08-19T12:03:52;7.60;;;6.10;;
51270;SDS011;37744;50.960;4.136;2022-08-19T12:06:21;6.95;;;5.80;;
51270;SDS011;37744;50.960;4.136;2022-08-19T12:08:55;10.15;;;6.85;;
51270;SDS011;37744;50.960;4.136;2022-08-19T12:11:21;8.00;;;7.03;;
51270;SDS011;37744;50.960;4.136;2022-08-19T12:13:49;10.48;;;7.00;;
51270;SDS011;37744;50.960;4.136;2022-08-19T12:16:19;9.43;;;6.63;;
51270;SDS011;37744;50.960;4.136;2022-08-19T12:18:47;8.27;;;6.22;;
51270;SDS011;37744;50.960;4.136;2022-08-19T12:21:20;10.77;;;6.20;;
51270;SDS011;37744;50.960;4.136;2022-08-19T12:23:50;11.07;;;6.30;;
51270;SDS011;37744;50.960;4.136;2022-08-19T12:26:19;8.20;;;5.72;;
51270;SDS011;37744;50.960;4.136;2022-08-19T12:28:45;10.18;;;4.70;;
51270;SDS011;37744;50.960;4.136;2022-08-19T12:31:16;14.68;;;5.72;;
51270;SDS011;37744;50.960;4.136;2022-08-19T12:36:15;8.43;;;3.75;;
51270;SDS011;37744;50.960;4.136;2022-08-19T12:38:48;8.63;;;3.88;;
51270;SDS011;37744;50.960;4.136;2022-08-19T12:41:20;36.88;;;5.93;;
